createdAt,value
2022-11-03T00:00:24.945Z,102002.44
2022-11-03T00:03:46.351Z,102002.50
2022-11-03T00:07:08.137Z,101997.34
2022-11-03T00:10:31.251Z,102000.16
2022-11-03T00:13:52.987Z,102001.06
2022-11-03T00:17:14.664Z,102007.34
2022-11-03T00:20:35.891Z,102003.13
2022-11-03T00:23:58.133Z,102003.25
2022-11-03T00:27:21.290Z,101999.91
2022-11-03T00:30:42.576Z,101999.97
2022-11-03T00:34:04.433Z,101990.31
2022-11-03T00:37:25.695Z,101995.94
2022-11-03T00:40:47.081Z,101991.59
2022-11-03T00:44:13.318Z,101981.22
2022-11-03T00:47:34.903Z,101985.00
2022-11-03T00:50:56.423Z,102000.06
2022-11-03T00:54:17.889Z,101992.31
2022-11-03T00:57:39.633Z,101984.63
2022-11-03T01:01:04.364Z,101981.31
2022-11-03T01:04:43.679Z,101983.22
2022-11-03T01:08:05.483Z,101972.69
2022-11-03T01:11:44.891Z,101972.97
2022-11-03T01:15:06.821Z,101967.81
2022-11-03T01:18:29.805Z,101972.50
2022-11-03T01:21:51.270Z,101971.84
2022-11-03T01:25:12.618Z,101973.81
2022-11-03T01:28:35.064Z,101975.25
2022-11-03T01:31:56.573Z,101977.16
2022-11-03T01:35:19.228Z,101976.22
2022-11-03T01:38:41.211Z,101975.53
2022-11-03T01:42:02.972Z,101970.41
2022-11-03T01:45:24.378Z,101960.78
2022-11-03T01:48:49.990Z,101965.25
2022-11-03T01:52:17.375Z,101954.75
2022-11-03T01:55:40.748Z,101954.84
2022-11-03T01:59:02.835Z,101955.88
2022-11-03T02:02:24.351Z,101951.59
2022-11-03T02:05:47.403Z,101961.28
2022-11-03T02:09:11.887Z,101949.88
2022-11-03T02:12:33.780Z,101945.59
2022-11-03T02:15:59.277Z,101943.06
2022-11-03T02:19:33.152Z,101941.41
2022-11-03T02:23:21.411Z,101932.88
2022-11-03T02:26:49.065Z,101939.88
2022-11-03T02:30:11.364Z,101932.06
2022-11-03T02:33:41.342Z,101926.09
2022-11-03T02:37:09.174Z,101920.06
2022-11-03T02:40:35.764Z,101910.56
2022-11-03T02:43:59.491Z,101906.31
2022-11-03T02:47:22.621Z,101900.25
2022-11-03T02:50:44.561Z,101901.09
2022-11-03T02:54:12.859Z,101895.00
2022-11-03T02:57:37.413Z,101893.41
2022-11-03T03:01:04.906Z,101892.47
2022-11-03T03:04:29.279Z,101890.75
2022-11-03T03:07:57.280Z,101889.03
2022-11-03T03:11:37.459Z,101898.53
2022-11-03T03:15:02.504Z,101891.31
2022-11-03T03:18:30.371Z,101892.47
2022-11-03T03:21:54.921Z,101890.88
2022-11-03T03:25:22.952Z,101896.25
2022-11-03T03:28:48.861Z,101898.03
2022-11-03T03:32:11.749Z,101898.09
2022-11-03T03:35:37.436Z,101888.47
2022-11-03T03:39:03.316Z,101893.69
2022-11-03T03:42:28.462Z,101898.00
2022-11-03T03:45:53.025Z,101905.66
2022-11-03T03:49:15.081Z,101902.78
2022-11-03T03:52:38.621Z,101905.31
2022-11-03T03:56:00.562Z,101899.22
2022-11-03T03:59:21.843Z,101902.66
2022-11-03T04:02:46.440Z,101895.56
2022-11-03T04:06:07.731Z,101885.91
2022-11-03T04:09:30.317Z,101892.09
2022-11-03T04:13:10.009Z,101879.72
2022-11-03T04:16:45.378Z,101884.97
2022-11-03T04:20:30.866Z,101876.16
2022-11-03T04:23:52.580Z,101876.09
2022-11-03T04:27:28.890Z,101865.53
2022-11-03T04:30:53.374Z,101867.19
2022-11-03T04:34:17.709Z,101860.19
2022-11-03T04:37:42.501Z,101867.25
2022-11-03T04:41:15.781Z,101862.28
2022-11-03T04:44:38.588Z,101858.84
2022-11-03T04:48:02.970Z,101853.59
2022-11-03T04:51:27.713Z,101845.53
2022-11-03T04:54:54.378Z,101834.19
2022-11-03T04:58:21.340Z,101832.41
2022-11-03T05:01:46.229Z,101830.66
2022-11-03T05:05:17.831Z,101821.94
2022-11-03T05:08:39.524Z,101817.59
2022-11-03T05:12:01.009Z,101811.53
2022-11-03T05:15:32.618Z,101815.00
2022-11-03T05:18:55.667Z,101813.22
2022-11-03T05:22:20.919Z,101813.38
2022-11-03T05:25:44.592Z,101810.78
2022-11-03T05:29:14.503Z,101800.34
2022-11-03T05:32:36.443Z,101803.88
2022-11-03T05:36:03.263Z,101788.88
2022-11-03T05:39:31.014Z,101783.69
2022-11-03T05:42:55.310Z,101782.78
2022-11-03T05:46:16.726Z,101778.34
2022-11-03T05:49:37.993Z,101771.44
2022-11-03T05:53:20.437Z,101764.41
2022-11-03T05:56:41.961Z,101774.91
2022-11-03T06:00:07.034Z,101773.16
2022-11-03T06:03:37.099Z,101775.69
2022-11-03T06:07:03.103Z,101773.94
2022-11-03T06:10:32.228Z,101773.34
2022-11-03T06:13:53.980Z,101781.25
2022-11-03T06:17:24.542Z,101793.53
2022-11-03T06:20:50.688Z,101799.63
2022-11-03T06:24:15.174Z,101799.53
2022-11-03T06:27:38.421Z,101801.31
2022-11-03T06:31:00.498Z,101796.97
2022-11-03T06:34:47.121Z,101789.16
2022-11-03T06:38:17.155Z,101789.06
2022-11-03T06:41:40.911Z,101784.72
2022-11-03T06:45:20.324Z,101771.44
2022-11-03T06:48:46.657Z,101777.41
2022-11-03T06:52:23.741Z,101781.72
2022-11-03T06:55:55.983Z,101781.78
2022-11-03T06:59:26.302Z,101785.47
2022-11-03T07:02:57.977Z,101782.69
2022-11-03T07:06:30.966Z,101767.41
2022-11-03T07:10:01.892Z,101762.69
2022-11-03T07:13:31.155Z,101765.97
2022-11-03T07:16:56.674Z,101758.78
2022-11-03T07:20:22.251Z,101757.78
2022-11-03T07:23:46.305Z,101755.84
2022-11-03T07:27:22.777Z,101759.31
2022-11-03T07:30:44.817Z,101750.41
2022-11-03T07:34:15.413Z,101760.75
2022-11-03T07:37:38.334Z,101756.13
2022-11-03T07:45:40.125Z,101746.53
2022-11-03T07:49:09.626Z,101747.97
2022-11-03T07:52:31.035Z,101748.41
2022-11-03T07:55:58.626Z,101747.00
2022-11-03T07:59:30.901Z,101742.13
2022-11-03T08:02:58.135Z,101735.50
2022-11-03T08:10:31.961Z,101721.25
2022-11-03T08:13:59.651Z,101719.09
2022-11-03T08:17:21.295Z,101708.00
2022-11-03T08:20:43.205Z,101708.41
2022-11-03T08:24:05.202Z,101696.50
2022-11-03T08:27:28.067Z,101701.34
2022-11-03T08:30:51.120Z,101701.81
2022-11-03T08:34:18.637Z,101696.16
2022-11-03T08:37:45.746Z,101699.19
2022-11-03T08:41:07.817Z,101685.38
2022-11-03T08:44:35.927Z,101684.91
2022-11-03T08:48:08.735Z,101687.06
2022-11-03T08:51:43.028Z,101666.16
2022-11-03T08:55:12.228Z,101663.94
2022-11-03T08:59:14.183Z,101666.00
2022-11-03T09:03:14.270Z,101658.41
2022-11-03T09:06:37.697Z,101648.16
2022-11-03T09:10:42.268Z,101642.34
2022-11-03T09:14:57.045Z,101630.25
2022-11-03T09:19:12.990Z,101616.22
2022-11-03T10:29:06.069Z,101510.97
2022-11-03T10:36:32.962Z,101507.28
2022-11-03T10:44:46.729Z,101495.00
2022-11-03T10:49:02.320Z,101490.72
2022-11-03T11:01:35.376Z,101467.47
2022-11-03T11:09:41.059Z,101449.84
2022-11-03T11:13:41.887Z,101449.03
2022-11-03T11:17:31.244Z,101442.84
2022-11-03T11:21:36.519Z,101432.44
2022-11-03T11:25:54.221Z,101423.69
2022-11-03T11:39:13.255Z,101400.97
2022-11-03T11:44:03.884Z,101396.63
2022-11-03T11:48:34.976Z,101390.56
2022-11-03T11:53:26.129Z,101377.41
2022-11-03T11:57:52.029Z,101370.44
2022-11-03T12:01:44.283Z,101360.81
2022-11-03T12:06:11.428Z,101362.00
2022-11-03T12:09:42.529Z,101354.34
2022-11-03T12:13:43.960Z,101352.84
2022-11-03T12:17:50.799Z,101346.00
2022-11-03T12:22:24.347Z,101340.97
2022-11-03T12:27:07.338Z,101329.75
2022-11-03T12:30:40.165Z,101336.41
2022-11-03T12:38:18.793Z,101325.19
2022-11-03T12:47:51.857Z,101324.81
2022-11-03T12:57:29.285Z,101308.50
2022-11-03T13:12:32.140Z,101295.69
2022-11-03T14:04:49.800Z,101210.44
2022-11-03T14:09:23.047Z,101207.75
2022-11-03T14:18:37.563Z,101172.56
2022-11-03T14:22:59.034Z,101169.03
2022-11-03T14:27:14.290Z,101170.16
2022-11-03T14:45:38.438Z,101158.13
2022-11-03T14:55:15.806Z,101156.28
2022-11-03T15:12:12.515Z,101105.31
2022-11-03T15:16:43.951Z,101099.22
2022-11-03T15:20:39.966Z,101080.09
2022-11-03T15:27:50.469Z,101069.22
2022-11-03T15:31:19.807Z,101067.81
2022-11-03T15:35:36.572Z,101068.34
2022-11-03T15:39:10.765Z,101054.84
2022-11-03T15:53:01.711Z,101039.47
2022-11-03T15:57:33.924Z,101045.63
2022-11-03T16:01:23.900Z,101035.00
2022-11-03T16:05:25.142Z,101024.03
2022-11-03T16:09:57.174Z,101019.72
2022-11-03T16:13:42.264Z,101009.72
2022-11-03T16:27:35.233Z,101000.19
2022-11-03T16:32:08.606Z,100983.25
2022-11-03T16:35:43.049Z,100969.00
2022-11-03T16:39:15.252Z,100967.47
2022-11-03T16:52:30.449Z,100953.59
2022-11-03T16:55:54.177Z,100959.19
2022-11-03T16:59:52.992Z,100947.06
2022-11-03T17:04:10.897Z,100951.66
2022-11-03T17:07:35.527Z,100944.66
2022-11-03T17:12:00.445Z,100934.00
2022-11-03T17:15:34.990Z,100928.41
2022-11-03T17:19:04.175Z,100927.56
2022-11-03T17:22:25.849Z,100930.84
2022-11-03T17:26:06.057Z,100920.06
2022-11-03T17:29:57.978Z,100907.59
2022-11-03T17:33:31.467Z,100894.03
2022-11-03T17:46:35.134Z,100881.41
2022-11-03T18:01:24.170Z,100861.09
2022-11-03T18:25:26.819Z,100810.25
2022-11-03T18:28:49.279Z,100793.56
2022-11-03T18:32:46.666Z,100790.06
2022-11-03T18:36:17.053Z,100775.19
2022-11-03T18:39:39.431Z,100780.66
2022-11-03T18:43:18.381Z,100780.78
2022-11-03T18:46:54.551Z,100769.28
2022-11-03T18:54:47.758Z,100740.53
2022-11-03T18:59:30.544Z,100734.59
2022-11-03T19:02:52.373Z,100718.00
2022-11-03T19:06:14.305Z,100708.47
2022-11-03T19:09:36.110Z,100688.28
2022-11-03T19:13:18.431Z,100692.78
2022-11-03T19:17:21.333Z,100675.09
2022-11-03T19:21:04.751Z,100669.91
2022-11-03T19:24:30.537Z,100655.75
2022-11-03T19:27:55.273Z,100638.09
2022-11-03T19:31:48.749Z,100638.09
2022-11-03T19:35:36.071Z,100634.75
2022-11-03T19:39:23.433Z,100624.09
2022-11-03T19:44:07.967Z,100616.94
2022-11-03T19:48:24.064Z,100608.25
2022-11-03T19:51:48.250Z,100595.19
2022-11-03T19:55:19.086Z,100590.84
2022-11-03T20:07:33.749Z,100575.41
2022-11-03T20:15:37.946Z,100584.22
2022-11-03T20:19:01.518Z,100580.84
2022-11-03T20:22:31.140Z,100576.78
2022-11-03T20:26:04.560Z,100565.44
2022-11-03T20:29:29.560Z,100565.44
2022-11-03T20:33:08.735Z,100560.38
2022-11-03T20:37:08.615Z,100558.69
2022-11-03T20:40:44.090Z,100542.00
2022-11-03T20:45:09.698Z,100535.13
2022-11-03T20:49:10.317Z,100546.88
2022-11-03T20:52:33.443Z,100535.66
2022-11-03T20:56:31.032Z,100524.47
2022-11-03T21:00:07.526Z,100523.75
2022-11-03T21:04:04.758Z,100513.34
2022-11-03T21:08:09.032Z,100506.50
2022-11-03T21:11:43.355Z,100515.56
2022-11-03T21:15:32.106Z,100532.75
2022-11-03T21:19:16.969Z,100538.34
2022-11-03T21:22:52.441Z,100523.63
2022-11-03T21:26:16.799Z,100516.72
2022-11-03T21:30:18.633Z,100517.16
2022-11-03T21:38:43.012Z,100505.47
2022-11-03T21:42:30.213Z,100496.91
2022-11-03T21:45:53.203Z,100492.09
2022-11-03T21:49:32.992Z,100499.38
2022-11-03T21:52:54.566Z,100491.81
2022-11-03T21:56:19.959Z,100489.53
2022-11-03T21:59:48.954Z,100491.47
2022-11-03T22:03:11.980Z,100475.88
2022-11-03T22:06:44.367Z,100465.53
2022-11-03T22:10:14.870Z,100463.13
2022-11-03T22:13:43.685Z,100463.53
2022-11-03T22:17:12.355Z,100462.94
2022-11-03T22:20:54.767Z,100456.03
2022-11-03T22:24:32.920Z,100454.50
2022-11-03T22:27:56.748Z,100457.69
2022-11-03T22:31:35.530Z,100457.44
2022-11-03T22:35:14.147Z,100441.19
2022-11-03T22:38:54.193Z,100432.53
2022-11-03T22:42:33.343Z,100427.47
2022-11-03T22:45:55.864Z,100425.53
2022-11-03T22:49:17.061Z,100427.78
2022-11-03T22:52:38.152Z,100423.19
2022-11-03T22:56:02.023Z,100426.69
2022-11-03T22:59:23.753Z,100423.34
2022-11-03T23:02:44.980Z,100412.72
2022-11-03T23:06:08.589Z,100413.53
2022-11-03T23:09:30.420Z,100408.09
2022-11-03T23:12:53.360Z,100407.97
2022-11-03T23:16:17.009Z,100411.94
2022-11-03T23:19:55.982Z,100399.50
2022-11-03T23:23:31.370Z,100397.69
2022-11-03T23:26:53.198Z,100400.47
2022-11-03T23:30:16.093Z,100400.47
2022-11-03T23:33:37.525Z,100388.88
2022-11-03T23:36:59.621Z,100387.19
2022-11-03T23:40:21.592Z,100385.25
2022-11-03T23:43:43.238Z,100397.41
2022-11-03T23:47:23.498Z,100392.25
2022-11-03T23:50:45.098Z,100385.38
2022-11-03T23:54:08.693Z,100377.41
2022-11-03T23:57:47.792Z,100371.28
